Miami, Florida
Current Conditions -  °F | °C
As of 11:53 PM on Friday 24 Oct 2014 (Local Time) from KMIA Reporting Station
Broken Clouds Broken Clouds  
Wind Chill: 74°   Ceiling: 2900
Heat Index: 74°   Visibility: 10mi
Dew Point: 67°   Wind: 7mph
Humidity: 79%   Direction: 340°NNW
Pressure: 29.87"   Gusts: NA
Location:  25.77°N, 80.19°W
Report Text: KMIA 250353Z 34006KT 10SM BKN029 BKN040 23/19 A2987 RMK AO2 SLP114 T02330194
Loading
Personal Weather Stations






























Interactive Weather Map New forecast layout! Learn more

10-Day Weather Forecast

Advertisements
Track Severe Weather on mobile